sensor_id;sensor_type;location;lat;lon;timestamp;P1;durP1;ratioP1;P2;durP2;ratioP2
13218;SDS011;6674;49.152;11.918;2023-04-24T00:01:31;1.33;;;1.23;;
13218;SDS011;6674;49.152;11.918;2023-04-24T00:03:59;2.00;;;1.73;;
13218;SDS011;6674;49.152;11.918;2023-04-24T00:06:26;1.73;;;1.63;;
13218;SDS011;6674;49.152;11.918;2023-04-24T00:08:58;1.30;;;1.10;;
13218;SDS011;6674;49.152;11.918;2023-04-24T00:11:24;1.60;;;1.20;;
13218;SDS011;6674;49.152;11.918;2023-04-24T00:13:53;1.17;;;1.07;;
13218;SDS011;6674;49.152;11.918;2023-04-24T00:16:19;3.17;;;1.57;;
13218;SDS011;6674;49.152;11.918;2023-04-24T00:18:46;2.13;;;1.60;;
13218;SDS011;6674;49.152;11.918;2023-04-24T00:21:13;1.97;;;1.70;;
13218;SDS011;6674;49.152;11.918;2023-04-24T00:23:41;1.60;;;1.50;;
13218;SDS011;6674;49.152;11.918;2023-04-24T00:26:08;2.07;;;1.77;;
13218;SDS011;6674;49.152;11.918;2023-04-24T00:28:35;1.80;;;1.60;;
13218;SDS011;6674;49.152;11.918;2023-04-24T00:31:03;1.87;;;1.57;;
13218;SDS011;6674;49.152;11.918;2023-04-24T00:33:30;1.57;;;1.47;;
13218;SDS011;6674;49.152;11.918;2023-04-24T00:35:57;1.70;;;1.60;;
13218;SDS011;6674;49.152;11.918;2023-04-24T00:38:24;2.63;;;1.73;;
13218;SDS011;6674;49.152;11.918;2023-04-24T00:40:50;1.73;;;1.60;;
13218;SDS011;6674;49.152;11.918;2023-04-24T00:43:19;1.80;;;1.70;;
13218;SDS011;6674;49.152;11.918;2023-04-24T00:45:46;2.07;;;1.90;;
13218;SDS011;6674;49.152;11.918;2023-04-24T00:48:14;2.40;;;2.17;;
13218;SDS011;6674;49.152;11.918;2023-04-24T00:50:40;2.07;;;1.90;;
13218;SDS011;6674;49.152;11.918;2023-04-24T00:53:08;1.90;;;1.80;;
13218;SDS011;6674;49.152;11.918;2023-04-24T00:55:35;2.27;;;1.80;;
13218;SDS011;6674;49.152;11.918;2023-04-24T00:58:03;2.70;;;2.23;;
13218;SDS011;6674;49.152;11.918;2023-04-24T01:00:30;2.70;;;1.80;;
13218;SDS011;6674;49.152;11.918;2023-04-24T01:02:57;2.17;;;2.00;;
13218;SDS011;6674;49.152;11.918;2023-04-24T01:05:26;2.37;;;2.00;;
13218;SDS011;6674;49.152;11.918;2023-04-24T01:07:53;2.00;;;1.87;;
13218;SDS011;6674;49.152;11.918;2023-04-24T01:10:20;2.17;;;1.97;;
13218;SDS011;6674;49.152;11.918;2023-04-24T01:12:46;2.03;;;1.93;;
13218;SDS011;6674;49.152;11.918;2023-04-24T01:15:13;2.13;;;1.93;;
13218;SDS011;6674;49.152;11.918;2023-04-24T01:17:40;2.20;;;2.10;;
13218;SDS011;6674;49.152;11.918;2023-04-24T01:20:08;2.87;;;2.10;;
13218;SDS011;6674;49.152;11.918;2023-04-24T01:22:38;2.67;;;1.97;;
13218;SDS011;6674;49.152;11.918;2023-04-24T01:25:06;3.33;;;1.90;;
13218;SDS011;6674;49.152;11.918;2023-04-24T01:27:33;2.20;;;2.00;;
13218;SDS011;6674;49.152;11.918;2023-04-24T01:29:59;3.10;;;2.20;;
13218;SDS011;6674;49.152;11.918;2023-04-24T01:32:27;2.70;;;2.20;;
13218;SDS011;6674;49.152;11.918;2023-04-24T01:34:54;2.40;;;2.20;;
13218;SDS011;6674;49.152;11.918;2023-04-24T01:37:20;2.00;;;1.90;;
13218;SDS011;6674;49.152;11.918;2023-04-24T01:39:48;2.03;;;1.93;;
13218;SDS011;6674;49.152;11.918;2023-04-24T01:42:15;2.27;;;2.17;;
13218;SDS011;6674;49.152;11.918;2023-04-24T01:44:42;2.20;;;1.90;;
13218;SDS011;6674;49.152;11.918;2023-04-24T01:47:10;3.37;;;2.47;;
13218;SDS011;6674;49.152;11.918;2023-04-24T01:49:37;3.20;;;2.30;;
13218;SDS011;6674;49.152;11.918;2023-04-24T01:52:04;2.63;;;2.30;;
13218;SDS011;6674;49.152;11.918;2023-04-24T01:54:31;2.50;;;2.30;;
13218;SDS011;6674;49.152;11.918;2023-04-24T01:56:59;2.37;;;2.17;;
13218;SDS011;6674;49.152;11.918;2023-04-24T01:59:27;3.83;;;3.53;;
13218;SDS011;6674;49.152;11.918;2023-04-24T02:01:54;4.23;;;3.70;;
13218;SDS011;6674;49.152;11.918;2023-04-24T02:04:21;3.80;;;3.50;;
13218;SDS011;6674;49.152;11.918;2023-04-24T02:06:48;4.33;;;3.77;;
13218;SDS011;6674;49.152;11.918;2023-04-24T02:09:14;3.97;;;3.67;;
13218;SDS011;6674;49.152;11.918;2023-04-24T02:11:41;3.97;;;3.60;;
13218;SDS011;6674;49.152;11.918;2023-04-24T02:14:09;3.57;;;3.27;;
13218;SDS011;6674;49.152;11.918;2023-04-24T02:16:35;4.50;;;4.10;;
13218;SDS011;6674;49.152;11.918;2023-04-24T02:19:02;3.47;;;3.17;;
13218;SDS011;6674;49.152;11.918;2023-04-24T02:21:29;3.23;;;3.03;;
13218;SDS011;6674;49.152;11.918;2023-04-24T02:23:56;4.33;;;3.93;;
13218;SDS011;6674;49.152;11.918;2023-04-24T02:26:22;3.70;;;3.40;;
13218;SDS011;6674;49.152;11.918;2023-04-24T02:28:49;4.37;;;3.97;;
13218;SDS011;6674;49.152;11.918;2023-04-24T02:31:17;4.03;;;3.63;;
13218;SDS011;6674;49.152;11.918;2023-04-24T02:33:44;4.27;;;3.87;;
13218;SDS011;6674;49.152;11.918;2023-04-24T02:36:11;4.40;;;4.00;;
13218;SDS011;6674;49.152;11.918;2023-04-24T02:38:38;3.50;;;3.20;;
13218;SDS011;6674;49.152;11.918;2023-04-24T02:41:04;5.00;;;4.40;;
13218;SDS011;6674;49.152;11.918;2023-04-24T02:43:31;4.93;;;4.53;;
13218;SDS011;6674;49.152;11.918;2023-04-24T02:45:58;4.73;;;4.33;;
13218;SDS011;6674;49.152;11.918;2023-04-24T02:48:27;5.07;;;4.60;;
13218;SDS011;6674;49.152;11.918;2023-04-24T02:50:53;4.83;;;4.43;;
13218;SDS011;6674;49.152;11.918;2023-04-24T02:53:20;5.50;;;5.00;;
13218;SDS011;6674;49.152;11.918;2023-04-24T02:55:47;4.10;;;3.70;;
13218;SDS011;6674;49.152;11.918;2023-04-24T02:58:14;4.27;;;3.80;;
13218;SDS011;6674;49.152;11.918;2023-04-24T03:00:40;4.10;;;3.70;;
13218;SDS011;6674;49.152;11.918;2023-04-24T03:03:08;4.47;;;4.10;;
13218;SDS011;6674;49.152;11.918;2023-04-24T03:05:36;4.53;;;4.10;;
13218;SDS011;6674;49.152;11.918;2023-04-24T03:08:03;4.67;;;4.27;;
13218;SDS011;6674;49.152;11.918;2023-04-24T03:10:29;4.23;;;3.90;;
13218;SDS011;6674;49.152;11.918;2023-04-24T03:12:57;4.10;;;3.80;;
13218;SDS011;6674;49.152;11.918;2023-04-24T03:15:23;4.57;;;4.13;;
13218;SDS011;6674;49.152;11.918;2023-04-24T03:17:50;4.13;;;3.80;;
13218;SDS011;6674;49.152;11.918;2023-04-24T03:20:17;4.03;;;3.63;;
13218;SDS011;6674;49.152;11.918;2023-04-24T03:22:45;4.03;;;3.60;;
13218;SDS011;6674;49.152;11.918;2023-04-24T03:25:12;5.03;;;4.13;;
13218;SDS011;6674;49.152;11.918;2023-04-24T03:27:38;4.23;;;3.90;;
13218;SDS011;6674;49.152;11.918;2023-04-24T03:30:05;4.83;;;4.33;;
13218;SDS011;6674;49.152;11.918;2023-04-24T03:32:33;5.10;;;4.70;;
13218;SDS011;6674;49.152;11.918;2023-04-24T03:34:59;5.10;;;4.63;;
13218;SDS011;6674;49.152;11.918;2023-04-24T03:37:26;5.37;;;4.83;;
13218;SDS011;6674;49.152;11.918;2023-04-24T03:39:54;4.40;;;4.10;;
13218;SDS011;6674;49.152;11.918;2023-04-24T03:42:21;5.30;;;4.80;;
13218;SDS011;6674;49.152;11.918;2023-04-24T03:44:47;5.50;;;5.00;;
13218;SDS011;6674;49.152;11.918;2023-04-24T03:47:14;5.80;;;5.20;;
13218;SDS011;6674;49.152;11.918;2023-04-24T03:49:41;5.30;;;4.80;;
13218;SDS011;6674;49.152;11.918;2023-04-24T03:52:07;6.27;;;5.67;;
13218;SDS011;6674;49.152;11.918;2023-04-24T03:54:34;6.53;;;5.87;;
13218;SDS011;6674;49.152;11.918;2023-04-24T03:57:02;6.17;;;5.57;;
13218;SDS011;6674;49.152;11.918;2023-04-24T03:59:29;6.70;;;6.07;;
13218;SDS011;6674;49.152;11.918;2023-04-24T04:01:56;6.53;;;5.97;;
13218;SDS011;6674;49.152;11.918;2023-04-24T04:04:23;5.63;;;5.13;;
13218;SDS011;6674;49.152;11.918;2023-04-24T04:06:50;6.83;;;6.13;;
13218;SDS011;6674;49.152;11.918;2023-04-24T04:09:17;5.77;;;5.30;;
13218;SDS011;6674;49.152;11.918;2023-04-24T04:11:43;5.43;;;4.83;;
13218;SDS011;6674;49.152;11.918;2023-04-24T04:14:11;5.80;;;5.30;;
13218;SDS011;6674;49.152;11.918;2023-04-24T04:16:38;5.70;;;5.20;;
13218;SDS011;6674;49.152;11.918;2023-04-24T04:19:05;4.93;;;4.53;;
13218;SDS011;6674;49.152;11.918;2023-04-24T04:21:31;5.70;;;5.20;;
13218;SDS011;6674;49.152;11.918;2023-04-24T04:23:58;5.23;;;4.47;;
13218;SDS011;6674;49.152;11.918;2023-04-24T04:26:24;5.30;;;4.80;;
13218;SDS011;6674;49.152;11.918;2023-04-24T04:28:52;5.63;;;5.17;;
13218;SDS011;6674;49.152;11.918;2023-04-24T04:31:20;6.00;;;5.50;;
13218;SDS011;6674;49.152;11.918;2023-04-24T04:33:48;5.43;;;4.80;;
13218;SDS011;6674;49.152;11.918;2023-04-24T04:36:15;4.67;;;4.27;;
13218;SDS011;6674;49.152;11.918;2023-04-24T04:38:43;5.00;;;4.60;;
13218;SDS011;6674;49.152;11.918;2023-04-24T04:41:10;5.10;;;4.70;;
13218;SDS011;6674;49.152;11.918;2023-04-24T04:43:37;4.70;;;4.30;;
13218;SDS011;6674;49.152;11.918;2023-04-24T04:46:04;5.03;;;4.60;;
13218;SDS011;6674;49.152;11.918;2023-04-24T04:48:34;5.40;;;4.90;;
13218;SDS011;6674;49.152;11.918;2023-04-24T04:51:01;5.23;;;4.77;;
13218;SDS011;6674;49.152;11.918;2023-04-24T04:53:27;5.53;;;5.03;;
13218;SDS011;6674;49.152;11.918;2023-04-24T04:55:54;4.90;;;4.23;;
13218;SDS011;6674;49.152;11.918;2023-04-24T04:58:21;5.03;;;4.63;;
13218;SDS011;6674;49.152;11.918;2023-04-24T05:00:47;5.10;;;4.53;;
13218;SDS011;6674;49.152;11.918;2023-04-24T05:03:14;5.10;;;4.57;;
13218;SDS011;6674;49.152;11.918;2023-04-24T05:05:42;4.40;;;4.10;;
13218;SDS011;6674;49.152;11.918;2023-04-24T05:08:09;4.37;;;4.07;;
13218;SDS011;6674;49.152;11.918;2023-04-24T05:10:35;4.53;;;4.13;;
13218;SDS011;6674;49.152;11.918;2023-04-24T05:13:02;4.77;;;4.43;;
13218;SDS011;6674;49.152;11.918;2023-04-24T05:15:29;4.83;;;4.43;;
13218;SDS011;6674;49.152;11.918;2023-04-24T05:17:56;4.33;;;3.93;;
13218;SDS011;6674;49.152;11.918;2023-04-24T05:20:23;4.10;;;3.80;;
13218;SDS011;6674;49.152;11.918;2023-04-24T05:22:51;4.50;;;3.67;;
13218;SDS011;6674;49.152;11.918;2023-04-24T05:25:18;4.60;;;4.20;;
13218;SDS011;6674;49.152;11.918;2023-04-24T05:27:45;4.50;;;4.10;;
13218;SDS011;6674;49.152;11.918;2023-04-24T05:30:12;4.30;;;3.93;;
13218;SDS011;6674;49.152;11.918;2023-04-24T05:32:39;4.30;;;4.00;;
13218;SDS011;6674;49.152;11.918;2023-04-24T05:35:05;4.33;;;4.03;;
13218;SDS011;6674;49.152;11.918;2023-04-24T05:37:32;3.97;;;3.67;;
13218;SDS011;6674;49.152;11.918;2023-04-24T05:40:00;5.00;;;4.20;;
13218;SDS011;6674;49.152;11.918;2023-04-24T05:42:28;4.57;;;4.17;;
13218;SDS011;6674;49.152;11.918;2023-04-24T05:44:55;4.13;;;3.83;;
13218;SDS011;6674;49.152;11.918;2023-04-24T05:47:22;4.23;;;3.80;;
13218;SDS011;6674;49.152;11.918;2023-04-24T05:49:48;4.60;;;4.20;;
13218;SDS011;6674;49.152;11.918;2023-04-24T05:52:15;4.30;;;3.90;;
13218;SDS011;6674;49.152;11.918;2023-04-24T05:54:42;4.77;;;4.37;;
13218;SDS011;6674;49.152;11.918;2023-04-24T05:57:10;5.00;;;4.13;;
13218;SDS011;6674;49.152;11.918;2023-04-24T05:59:36;4.97;;;4.40;;
13218;SDS011;6674;49.152;11.918;2023-04-24T06:02:04;4.67;;;4.27;;
13218;SDS011;6674;49.152;11.918;2023-04-24T06:04:31;4.23;;;3.83;;
13218;SDS011;6674;49.152;11.918;2023-04-24T06:06:58;4.50;;;4.10;;
13218;SDS011;6674;49.152;11.918;2023-04-24T06:09:25;5.07;;;4.10;;
13218;SDS011;6674;49.152;11.918;2023-04-24T06:11:52;4.57;;;4.17;;
13218;SDS011;6674;49.152;11.918;2023-04-24T06:14:20;3.83;;;3.53;;
13218;SDS011;6674;49.152;11.918;2023-04-24T06:16:46;4.57;;;4.10;;
13218;SDS011;6674;49.152;11.918;2023-04-24T06:19:13;4.47;;;4.07;;
13218;SDS011;6674;49.152;11.918;2023-04-24T06:21:40;4.83;;;4.43;;
13218;SDS011;6674;49.152;11.918;2023-04-24T06:24:06;4.53;;;4.13;;
13218;SDS011;6674;49.152;11.918;2023-04-24T06:26:33;4.00;;;3.70;;
13218;SDS011;6674;49.152;11.918;2023-04-24T06:29:00;5.93;;;4.33;;
13218;SDS011;6674;49.152;11.918;2023-04-24T06:31:28;4.33;;;4.00;;
13218;SDS011;6674;49.152;11.918;2023-04-24T06:33:55;3.93;;;3.63;;
13218;SDS011;6674;49.152;11.918;2023-04-24T06:36:21;3.50;;;3.30;;
13218;SDS011;6674;49.152;11.918;2023-04-24T06:38:48;3.50;;;3.20;;
13218;SDS011;6674;49.152;11.918;2023-04-24T06:41:15;3.80;;;3.50;;
13218;SDS011;6674;49.152;11.918;2023-04-24T06:43:41;3.60;;;3.40;;
13218;SDS011;6674;49.152;11.918;2023-04-24T06:46:08;3.40;;;3.20;;
13218;SDS011;6674;49.152;11.918;2023-04-24T06:48:36;2.60;;;2.50;;
13218;SDS011;6674;49.152;11.918;2023-04-24T06:51:02;3.20;;;2.73;;
13218;SDS011;6674;49.152;11.918;2023-04-24T06:53:29;3.27;;;2.87;;
13218;SDS011;6674;49.152;11.918;2023-04-24T06:55:56;3.17;;;2.90;;
13218;SDS011;6674;49.152;11.918;2023-04-24T06:58:22;3.00;;;2.80;;
13218;SDS011;6674;49.152;11.918;2023-04-24T07:00:50;2.90;;;2.70;;
13218;SDS011;6674;49.152;11.918;2023-04-24T07:03:16;3.00;;;2.80;;
13218;SDS011;6674;49.152;11.918;2023-04-24T07:05:44;3.10;;;2.60;;
13218;SDS011;6674;49.152;11.918;2023-04-24T07:08:11;2.60;;;2.40;;
13218;SDS011;6674;49.152;11.918;2023-04-24T07:10:38;2.63;;;2.43;;
13218;SDS011;6674;49.152;11.918;2023-04-24T07:13:05;2.20;;;2.00;;
13218;SDS011;6674;49.152;11.918;2023-04-24T07:15:32;2.47;;;2.27;;
13218;SDS011;6674;49.152;11.918;2023-04-24T07:17:59;2.30;;;2.20;;
13218;SDS011;6674;49.152;11.918;2023-04-24T07:20:25;2.13;;;1.90;;
13218;SDS011;6674;49.152;11.918;2023-04-24T07:22:54;1.93;;;1.83;;
13218;SDS011;6674;49.152;11.918;2023-04-24T07:25:21;2.30;;;2.10;;
13218;SDS011;6674;49.152;11.918;2023-04-24T07:27:48;1.97;;;1.87;;
13218;SDS011;6674;49.152;11.918;2023-04-24T07:30:15;2.17;;;2.07;;
13218;SDS011;6674;49.152;11.918;2023-04-24T07:32:42;2.90;;;1.90;;
13218;SDS011;6674;49.152;11.918;2023-04-24T07:35:09;1.57;;;1.47;;
13218;SDS011;6674;49.152;11.918;2023-04-24T07:37:35;2.17;;;1.80;;
13218;SDS011;6674;49.152;11.918;2023-04-24T07:40:04;2.03;;;1.50;;
13218;SDS011;6674;49.152;11.918;2023-04-24T07:42:31;2.00;;;1.90;;
13218;SDS011;6674;49.152;11.918;2023-04-24T07:44:59;2.57;;;1.90;;
13218;SDS011;6674;49.152;11.918;2023-04-24T07:47:26;2.23;;;1.60;;
13218;SDS011;6674;49.152;11.918;2023-04-24T07:49:52;1.90;;;1.70;;
13218;SDS011;6674;49.152;11.918;2023-04-24T07:52:19;1.87;;;1.63;;
13218;SDS011;6674;49.152;11.918;2023-04-24T07:54:46;2.03;;;1.40;;
13218;SDS011;6674;49.152;11.918;2023-04-24T07:57:14;1.70;;;1.60;;
13218;SDS011;6674;49.152;11.918;2023-04-24T07:59:40;1.23;;;1.13;;
13218;SDS011;6674;49.152;11.918;2023-04-24T08:02:07;2.20;;;1.33;;
13218;SDS011;6674;49.152;11.918;2023-04-24T08:04:34;1.60;;;1.50;;
13218;SDS011;6674;49.152;11.918;2023-04-24T08:07:01;1.50;;;1.13;;
13218;SDS011;6674;49.152;11.918;2023-04-24T08:09:28;1.23;;;1.13;;
13218;SDS011;6674;49.152;11.918;2023-04-24T08:11:55;1.07;;;1.07;;
13218;SDS011;6674;49.152;11.918;2023-04-24T08:14:23;1.03;;;0.90;;
13218;SDS011;6674;49.152;11.918;2023-04-24T08:16:49;1.43;;;0.60;;
13218;SDS011;6674;49.152;11.918;2023-04-24T08:19:16;1.13;;;0.70;;
13218;SDS011;6674;49.152;11.918;2023-04-24T08:21:42;1.00;;;0.90;;
13218;SDS011;6674;49.152;11.918;2023-04-24T08:24:09;0.70;;;0.70;;
13218;SDS011;6674;49.152;11.918;2023-04-24T08:26:36;1.10;;;0.83;;
13218;SDS011;6674;49.152;11.918;2023-04-24T08:29:02;0.87;;;0.87;;
13218;SDS011;6674;49.152;11.918;2023-04-24T08:31:30;1.77;;;1.00;;
13218;SDS011;6674;49.152;11.918;2023-04-24T08:33:57;1.27;;;1.17;;
13218;SDS011;6674;49.152;11.918;2023-04-24T08:36:25;1.20;;;1.10;;
13218;SDS011;6674;49.152;11.918;2023-04-24T08:38:51;1.50;;;1.40;;
13218;SDS011;6674;49.152;11.918;2023-04-24T08:41:18;2.17;;;1.63;;
13218;SDS011;6674;49.152;11.918;2023-04-24T08:43:46;2.40;;;1.20;;
13218;SDS011;6674;49.152;11.918;2023-04-24T08:46:13;5.57;;;1.53;;
13218;SDS011;6674;49.152;11.918;2023-04-24T08:51:30;2.47;;;1.37;;
13218;SDS011;6674;49.152;11.918;2023-04-24T08:53:57;1.70;;;1.60;;
13218;SDS011;6674;49.152;11.918;2023-04-24T08:56:24;2.13;;;1.60;;
13218;SDS011;6674;49.152;11.918;2023-04-24T08:58:51;1.73;;;1.50;;
13218;SDS011;6674;49.152;11.918;2023-04-24T09:01:20;1.30;;;1.20;;
13218;SDS011;6674;49.152;11.918;2023-04-24T09:03:47;1.20;;;1.10;;
13218;SDS011;6674;49.152;11.918;2023-04-24T09:06:16;1.73;;;1.47;;
13218;SDS011;6674;49.152;11.918;2023-04-24T09:08:44;3.00;;;1.30;;
13218;SDS011;6674;49.152;11.918;2023-04-24T09:11:11;1.23;;;1.20;;
13218;SDS011;6674;49.152;11.918;2023-04-24T09:13:38;1.27;;;1.17;;
13218;SDS011;6674;49.152;11.918;2023-04-24T09:16:05;1.40;;;1.30;;
13218;SDS011;6674;49.152;11.918;2023-04-24T09:18:32;2.00;;;1.20;;
13218;SDS011;6674;49.152;11.918;2023-04-24T09:21:00;0.90;;;0.90;;
13218;SDS011;6674;49.152;11.918;2023-04-24T09:23:29;2.47;;;1.40;;
13218;SDS011;6674;49.152;11.918;2023-04-24T09:25:58;1.67;;;1.10;;
13218;SDS011;6674;49.152;11.918;2023-04-24T09:28:27;1.27;;;1.20;;
13218;SDS011;6674;49.152;11.918;2023-04-24T09:31:03;1.60;;;1.13;;
13218;SDS011;6674;49.152;11.918;2023-04-24T09:33:33;1.40;;;1.30;;
13218;SDS011;6674;49.152;11.918;2023-04-24T09:36:01;1.47;;;1.37;;
13218;SDS011;6674;49.152;11.918;2023-04-24T09:38:32;1.70;;;1.60;;
13218;SDS011;6674;49.152;11.918;2023-04-24T09:41:00;1.60;;;1.50;;
13218;SDS011;6674;49.152;11.918;2023-04-24T09:43:29;1.50;;;1.40;;
13218;SDS011;6674;49.152;11.918;2023-04-24T09:45:57;1.53;;;1.43;;
13218;SDS011;6674;49.152;11.918;2023-04-24T09:48:29;2.00;;;1.90;;
13218;SDS011;6674;49.152;11.918;2023-04-24T09:50:57;1.50;;;1.40;;
13218;SDS011;6674;49.152;11.918;2023-04-24T09:53:24;2.00;;;1.63;;
13218;SDS011;6674;49.152;11.918;2023-04-24T09:55:53;1.77;;;1.60;;
13218;SDS011;6674;49.152;11.918;2023-04-24T09:58:24;1.43;;;1.33;;
13218;SDS011;6674;49.152;11.918;2023-04-24T10:00:53;1.40;;;1.30;;
13218;SDS011;6674;49.152;11.918;2023-04-24T10:03:20;1.80;;;1.70;;
13218;SDS011;6674;49.152;11.918;2023-04-24T10:05:47;1.60;;;1.50;;
13218;SDS011;6674;49.152;11.918;2023-04-24T10:08:13;1.70;;;1.60;;
13218;SDS011;6674;49.152;11.918;2023-04-24T10:10:41;2.07;;;1.90;;
13218;SDS011;6674;49.152;11.918;2023-04-24T10:13:10;1.97;;;1.63;;
13218;SDS011;6674;49.152;11.918;2023-04-24T10:15:38;1.97;;;1.87;;
13218;SDS011;6674;49.152;11.918;2023-04-24T10:18:07;1.80;;;1.70;;
13218;SDS011;6674;49.152;11.918;2023-04-24T10:20:35;2.20;;;2.00;;
13218;SDS011;6674;49.152;11.918;2023-04-24T10:23:04;1.40;;;1.30;;
13218;SDS011;6674;49.152;11.918;2023-04-24T10:25:32;1.83;;;1.73;;
13218;SDS011;6674;49.152;11.918;2023-04-24T10:28:01;2.03;;;1.73;;
13218;SDS011;6674;49.152;11.918;2023-04-24T10:30:30;1.63;;;1.53;;
13218;SDS011;6674;49.152;11.918;2023-04-24T10:33:00;1.47;;;1.37;;
13218;SDS011;6674;49.152;11.918;2023-04-24T10:35:27;1.60;;;1.50;;
13218;SDS011;6674;49.152;11.918;2023-04-24T10:37:58;1.67;;;1.57;;
13218;SDS011;6674;49.152;11.918;2023-04-24T10:40:29;1.27;;;1.27;;
13218;SDS011;6674;49.152;11.918;2023-04-24T10:42:57;1.60;;;1.50;;
13218;SDS011;6674;49.152;11.918;2023-04-24T10:45:24;1.97;;;1.77;;
13218;SDS011;6674;49.152;11.918;2023-04-24T10:47:54;1.10;;;1.10;;
13218;SDS011;6674;49.152;11.918;2023-04-24T10:50:25;1.23;;;1.23;;
13218;SDS011;6674;49.152;11.918;2023-04-24T10:52:53;1.30;;;1.30;;
13218;SDS011;6674;49.152;11.918;2023-04-24T10:55:41;1.50;;;1.40;;
13218;SDS011;6674;49.152;11.918;2023-04-24T10:58:09;1.33;;;1.13;;
13218;SDS011;6674;49.152;11.918;2023-04-24T11:00:37;1.30;;;1.20;;
13218;SDS011;6674;49.152;11.918;2023-04-24T11:03:06;1.53;;;1.33;;
13218;SDS011;6674;49.152;11.918;2023-04-24T11:08:26;1.43;;;1.37;;
13218;SDS011;6674;49.152;11.918;2023-04-24T11:10:55;2.30;;;1.33;;
13218;SDS011;6674;49.152;11.918;2023-04-24T11:13:24;1.23;;;1.13;;
13218;SDS011;6674;49.152;11.918;2023-04-24T11:18:43;1.23;;;1.20;;
13218;SDS011;6674;49.152;11.918;2023-04-24T11:21:16;1.00;;;1.00;;
13218;SDS011;6674;49.152;11.918;2023-04-24T11:23:44;1.30;;;1.20;;
13218;SDS011;6674;49.152;11.918;2023-04-24T11:26:12;2.30;;;1.57;;
13218;SDS011;6674;49.152;11.918;2023-04-24T11:28:46;2.10;;;1.30;;
13218;SDS011;6674;49.152;11.918;2023-04-24T11:34:11;1.43;;;1.17;;
13218;SDS011;6674;49.152;11.918;2023-04-24T11:36:39;1.30;;;1.20;;
13218;SDS011;6674;49.152;11.918;2023-04-24T11:39:07;2.10;;;1.53;;
13218;SDS011;6674;49.152;11.918;2023-04-24T11:41:33;1.47;;;1.37;;
13218;SDS011;6674;49.152;11.918;2023-04-24T11:44:01;2.13;;;1.80;;
13218;SDS011;6674;49.152;11.918;2023-04-24T11:46:29;3.00;;;1.53;;
13218;SDS011;6674;49.152;11.918;2023-04-24T11:48:57;2.07;;;1.60;;
13218;SDS011;6674;49.152;11.918;2023-04-24T11:51:26;1.60;;;1.50;;
13218;SDS011;6674;49.152;11.918;2023-04-24T11:53:54;1.47;;;1.37;;
13218;SDS011;6674;49.152;11.918;2023-04-24T11:56:21;1.60;;;1.50;;
13218;SDS011;6674;49.152;11.918;2023-04-24T11:58:51;1.50;;;1.40;;
13218;SDS011;6674;49.152;11.918;2023-04-24T12:01:19;2.13;;;1.93;;
13218;SDS011;6674;49.152;11.918;2023-04-24T12:03:47;1.60;;;1.40;;
13218;SDS011;6674;49.152;11.918;2023-04-24T12:06:16;1.70;;;1.50;;
13218;SDS011;6674;49.152;11.918;2023-04-24T12:08:46;1.40;;;1.30;;
13218;SDS011;6674;49.152;11.918;2023-04-24T12:11:14;2.07;;;1.70;;
13218;SDS011;6674;49.152;11.918;2023-04-24T12:13:44;1.87;;;1.50;;
13218;SDS011;6674;49.152;11.918;2023-04-24T12:16:11;1.60;;;1.50;;
13218;SDS011;6674;49.152;11.918;2023-04-24T12:18:42;1.40;;;1.30;;
13218;SDS011;6674;49.152;11.918;2023-04-24T12:21:20;1.67;;;1.57;;
13218;SDS011;6674;49.152;11.918;2023-04-24T12:23:49;1.17;;;1.07;;
13218;SDS011;6674;49.152;11.918;2023-04-24T12:26:16;1.57;;;1.10;;
13218;SDS011;6674;49.152;11.918;2023-04-24T12:28:45;0.80;;;0.70;;
13218;SDS011;6674;49.152;11.918;2023-04-24T12:31:13;0.80;;;0.80;;
13218;SDS011;6674;49.152;11.918;2023-04-24T12:33:40;1.07;;;0.97;;
13218;SDS011;6674;49.152;11.918;2023-04-24T12:36:09;0.90;;;0.90;;
13218;SDS011;6674;49.152;11.918;2023-04-24T12:38:37;0.80;;;0.73;;
13218;SDS011;6674;49.152;11.918;2023-04-24T12:41:08;1.03;;;0.73;;
13218;SDS011;6674;49.152;11.918;2023-04-24T12:43:36;1.17;;;0.93;;
13218;SDS011;6674;49.152;11.918;2023-04-24T12:46:03;0.87;;;0.70;;
13218;SDS011;6674;49.152;11.918;2023-04-24T12:48:30;1.57;;;0.90;;
13218;SDS011;6674;49.152;11.918;2023-04-24T12:50:57;1.57;;;1.00;;
13218;SDS011;6674;49.152;11.918;2023-04-24T12:53:26;0.80;;;0.80;;
13218;SDS011;6674;49.152;11.918;2023-04-24T12:55:54;0.70;;;0.70;;
13218;SDS011;6674;49.152;11.918;2023-04-24T12:58:22;1.20;;;1.10;;
13218;SDS011;6674;49.152;11.918;2023-04-24T13:00:49;0.70;;;0.70;;
13218;SDS011;6674;49.152;11.918;2023-04-24T13:03:17;1.50;;;1.03;;
13218;SDS011;6674;49.152;11.918;2023-04-24T13:05:44;1.37;;;1.27;;
13218;SDS011;6674;49.152;11.918;2023-04-24T13:08:11;1.40;;;1.07;;
13218;SDS011;6674;49.152;11.918;2023-04-24T13:10:38;1.30;;;1.20;;
13218;SDS011;6674;49.152;11.918;2023-04-24T13:13:05;1.30;;;1.17;;
13218;SDS011;6674;49.152;11.918;2023-04-24T13:15:33;1.20;;;1.10;;
13218;SDS011;6674;49.152;11.918;2023-04-24T13:18:00;1.93;;;1.30;;
13218;SDS011;6674;49.152;11.918;2023-04-24T13:20:27;1.57;;;1.00;;
13218;SDS011;6674;49.152;11.918;2023-04-24T13:22:54;1.90;;;1.07;;
13218;SDS011;6674;49.152;11.918;2023-04-24T13:25:21;1.10;;;1.10;;
13218;SDS011;6674;49.152;11.918;2023-04-24T13:27:48;1.17;;;1.10;;
13218;SDS011;6674;49.152;11.918;2023-04-24T13:30:15;1.10;;;1.00;;
13218;SDS011;6674;49.152;11.918;2023-04-24T13:32:43;1.60;;;1.10;;
13218;SDS011;6674;49.152;11.918;2023-04-24T13:35:10;1.30;;;1.10;;
13218;SDS011;6674;49.152;11.918;2023-04-24T13:37:37;1.13;;;1.10;;
13218;SDS011;6674;49.152;11.918;2023-04-24T13:40:04;1.03;;;0.90;;
13218;SDS011;6674;49.152;11.918;2023-04-24T13:42:32;1.33;;;1.30;;
13218;SDS011;6674;49.152;11.918;2023-04-24T13:44:58;1.13;;;0.80;;
13218;SDS011;6674;49.152;11.918;2023-04-24T13:47:25;2.03;;;1.03;;
13218;SDS011;6674;49.152;11.918;2023-04-24T13:49:53;2.03;;;1.20;;
13218;SDS011;6674;49.152;11.918;2023-04-24T13:52:20;1.07;;;0.87;;
13218;SDS011;6674;49.152;11.918;2023-04-24T13:54:46;1.40;;;1.30;;
13218;SDS011;6674;49.152;11.918;2023-04-24T13:57:13;1.30;;;1.30;;
13218;SDS011;6674;49.152;11.918;2023-04-24T13:59:40;1.50;;;1.40;;
13218;SDS011;6674;49.152;11.918;2023-04-24T14:02:08;1.70;;;1.60;;
13218;SDS011;6674;49.152;11.918;2023-04-24T14:04:35;1.30;;;1.20;;
13218;SDS011;6674;49.152;11.918;2023-04-24T14:07:04;1.60;;;1.50;;
13218;SDS011;6674;49.152;11.918;2023-04-24T14:09:31;1.37;;;1.27;;
13218;SDS011;6674;49.152;11.918;2023-04-24T14:11:59;1.90;;;1.47;;
13218;SDS011;6674;49.152;11.918;2023-04-24T14:14:27;1.40;;;1.30;;
13218;SDS011;6674;49.152;11.918;2023-04-24T14:16:56;1.60;;;1.40;;
13218;SDS011;6674;49.152;11.918;2023-04-24T14:19:23;1.33;;;1.23;;
13218;SDS011;6674;49.152;11.918;2023-04-24T14:21:51;1.77;;;1.37;;
13218;SDS011;6674;49.152;11.918;2023-04-24T14:24:20;1.80;;;1.53;;
13218;SDS011;6674;49.152;11.918;2023-04-24T14:26:48;1.07;;;1.03;;
13218;SDS011;6674;49.152;11.918;2023-04-24T14:29:15;0.90;;;0.90;;
13218;SDS011;6674;49.152;11.918;2023-04-24T14:31:42;1.47;;;1.37;;
13218;SDS011;6674;49.152;11.918;2023-04-24T14:34:10;1.77;;;1.00;;
13218;SDS011;6674;49.152;11.918;2023-04-24T14:36:37;1.23;;;1.10;;
13218;SDS011;6674;49.152;11.918;2023-04-24T14:39:04;0.97;;;0.97;;
13218;SDS011;6674;49.152;11.918;2023-04-24T14:41:34;2.50;;;1.50;;
13218;SDS011;6674;49.152;11.918;2023-04-24T14:44:02;1.70;;;1.60;;
13218;SDS011;6674;49.152;11.918;2023-04-24T14:46:30;1.40;;;1.30;;
13218;SDS011;6674;49.152;11.918;2023-04-24T14:48:57;1.70;;;1.60;;
13218;SDS011;6674;49.152;11.918;2023-04-24T14:51:25;1.73;;;1.63;;
13218;SDS011;6674;49.152;11.918;2023-04-24T14:53:52;2.53;;;2.03;;
13218;SDS011;6674;49.152;11.918;2023-04-24T14:56:20;2.20;;;2.00;;
13218;SDS011;6674;49.152;11.918;2023-04-24T14:58:49;1.80;;;1.70;;
13218;SDS011;6674;49.152;11.918;2023-04-24T15:01:16;2.10;;;1.90;;